• Join FlightAware (Why Join?)
  • Login
  • US Flag 
10:17PM EST


 

Airport Tracker/Info


-or-


 

Live Flight TrackerFlight Track Log ✈ ASQ4252 ✈ 16-Jun-2013 ✈ KMSY - KIAH

Flight Track Log - Related Links

Times and Time Zones

All times are in EDT time to prevent confusion due to time zone crossing. See the ASQ4252 flight status page for this flight to view local times or setup timezone preferences in your user account.

Time Position Orientation Groundspeed Altitude Reporting Facility
EDT Latitude Longitude Course Direction KTS MPH feet Rate Location/Type
10:40PM 29.9956 -90.2747 261° West 162 186 600  Level Houston Center
10:41PM 29.9900 -90.3169 261° West 192 221 2,600 2,820 Climbing Houston Center
10:41PM 29.9847 -90.3328 249° West 214 246 3,200 2,700 Climbing Houston Center
10:42PM 29.9686 -90.3933 253° West 239 275 5,400 3,300 Climbing Houston Center
10:43PM 29.9431 -90.4781 251° West 271 312 9,100 3,240 Climbing Houston Center
10:44PM 29.9156 -90.5628 249° West 282 325 12,100 2,700 Climbing Houston Center
10:45PM 29.8897 -90.6553 252° West 300 345 14,700 2,280 Climbing Houston Center
10:46PM 29.8597 -90.7525 250° West 319 367 16,800 1,980 Climbing Houston Center
10:47PM 29.8275 -90.8536 250° West 335 386 18,800 1,920 Climbing Houston Center
10:48PM 29.7983 -90.9581 252° West 343 395 20,800 1,920 Climbing Houston Center
10:49PM 29.7747 -91.0681 256° West 354 407 22,800 1,680 Climbing Houston Center
10:50PM 29.7500 -91.1806 256° West 362 417 24,300 1,440 Climbing Houston Center
10:51PM 29.7233 -91.2975 255° West 376 433 25,800 780 Climbing Houston Center
10:52PM 29.6942 -91.4214 255° West 400 460 26,000 60 Climbing Houston Center
10:53PM 29.6581 -91.5825 256° West 435 501 26,000  Level Houston Center
10:54PM 29.6272 -91.7219 256° West 449 517 26,000  Level Houston Center
10:55PM 29.5944 -91.8600 255° West 451 519 26,000  Level Houston Center
10:56PM 29.5636 -91.9994 256° West 451 519 26,000  Level Houston Center
10:57PM 29.5361 -92.1394 257° West 450 518 26,000  Level Houston Center
10:58PM 29.5369 -92.2853 270° West 457 526 26,000  Level Houston Center
10:59PM 29.5369 -92.4300 270° West 452 520 26,000  Level Houston Center
11:00PM 29.5381 -92.5742 271° West 452 520 26,000  Level Houston Center
11:01PM 29.5383 -92.7200 270° West 455 524 26,000  Level Houston Center
11:02PM 29.5394 -92.8642 271° West 452 520 26,000  Level Houston Center
11:03PM 29.5389 -93.0103 270° West 455 524 26,000  Level Houston Center
11:04PM 29.5392 -93.1567 270° West 457 526 26,000  Level Houston Center
11:05PM 29.5392 -93.3028 270° West 458 527 26,000  Level Houston Center
11:06PM 29.5392 -93.4489 270° West 457 526 26,000  Level Houston Center
11:07PM 29.5381 -93.5950 270° West 456 525 26,000 -600 Level Houston Center
11:08PM 29.5369 -93.7697 270° West 455 524 24,800 -2,220 Descending Houston Center
11:09PM 29.5367 -93.9100 270° West 446 513 21,600 -3,060 Descending Houston Center
11:10PM 29.5358 -94.0414 270° West 422 486 18,600 -3,000 Descending Houston Center
11:11PM 29.5342 -94.1336 269° West 400 460 16,500 -3,240 Descending Houston Center
11:11PM 29.5342 -94.1961 270° West 381 438 14,700 -2,520 Descending Houston Center
11:12PM 29.5333 -94.2819 269° West 368 423 13,200 -1,020 Descending Houston Center
11:13PM 29.5511 -94.3847 281° West 345 397 12,900 -600 Descending Houston Center
11:14PM 29.5950 -94.4903 296° West 364 419 12,000 -960 Descending Houston Center
11:15PM 29.6417 -94.5967 297° West 373 429 11,000 -1,020 Descending Houston Center
11:16PM 29.7189 -94.6764 318° Northwest 390 449 10,000 -540 Descending Houston Center
11:17PM 29.8033 -94.7428 326° Northwest 376 433 10,000 -600 Level Houston Center
11:18PM 29.8564 -94.8133 311° West 300 345 8,900 -1,440 Descending Houston Center
11:19PM 29.9064 -94.8833 309° West 285 328 7,100 -1,920 Descending Houston Center
11:20PM 29.9622 -94.9653 308° West 276 318 5,000 -1,200 Descending Houston Center
11:21PM 29.9972 -95.0403 298° West 277 319 4,700 -300 Descending Houston Center